createdAt,value
2023-01-19T00:00:28.977Z,29.63
2023-01-19T00:01:15.890Z,27.00
2023-01-19T00:02:02.714Z,28.40
2023-01-19T00:02:50.900Z,29.50
2023-01-19T00:03:37.811Z,28.25
2023-01-19T00:04:24.711Z,29.30
2023-01-19T00:05:11.803Z,29.17
2023-01-19T00:05:58.669Z,29.02
2023-01-19T00:06:45.582Z,29.65
2023-01-19T00:07:32.733Z,28.50
2023-01-19T00:08:19.550Z,29.37
2023-01-19T00:09:06.396Z,28.42
2023-01-19T00:09:53.212Z,28.05
2023-01-19T00:10:40.284Z,28.10
2023-01-19T00:11:27.304Z,27.15
2023-01-19T00:12:14.120Z,29.52
2023-01-19T00:13:01.341Z,27.30
2023-01-19T00:13:51.229Z,27.80
2023-01-19T00:14:38.112Z,26.27
2023-01-19T00:15:24.948Z,27.50
2023-01-19T00:16:11.903Z,26.80
2023-01-19T00:16:59.301Z,27.15
2023-01-19T00:17:46.149Z,27.30
2023-01-19T00:18:33.541Z,27.95
2023-01-19T00:19:20.354Z,26.17
2023-01-19T00:20:09.130Z,25.05
2023-01-19T00:20:55.945Z,26.65
2023-01-19T00:21:42.755Z,27.00
2023-01-19T00:22:29.878Z,27.08
2023-01-19T00:23:17.112Z,25.98
2023-01-19T00:24:04.126Z,27.92
2023-01-19T00:24:50.940Z,26.50
2023-01-19T00:25:44.935Z,27.20
2023-01-19T00:26:31.771Z,25.88
2023-01-19T00:27:18.809Z,25.80
2023-01-19T00:28:05.730Z,26.90
2023-01-19T00:28:53.227Z,25.70
2023-01-19T00:29:40.074Z,26.65
2023-01-19T00:30:26.923Z,25.62
2023-01-19T00:31:13.894Z,27.33
2023-01-19T00:32:01.370Z,25.50
2023-01-19T00:32:48.280Z,26.50
2023-01-19T00:33:35.312Z,25.37
2023-01-19T00:34:22.130Z,25.77
2023-01-19T00:35:09.140Z,25.08
2023-01-19T00:35:56.281Z,25.25
2023-01-19T00:36:43.420Z,24.83
2023-01-19T00:37:30.220Z,23.80
2023-01-19T00:38:17.024Z,22.90
2023-01-19T00:39:03.960Z,23.00
2023-01-19T00:39:50.898Z,23.60
2023-01-19T00:40:37.849Z,24.87
2023-01-19T00:41:44.660Z,22.65
2023-01-19T00:42:40.660Z,22.92
2023-01-19T00:43:28.370Z,22.42
2023-01-19T00:44:15.339Z,23.02
2023-01-19T00:45:02.192Z,22.77
2023-01-19T00:45:49.115Z,22.40
2023-01-19T00:46:35.989Z,21.17
2023-01-19T00:47:22.805Z,22.25
2023-01-19T00:48:09.760Z,22.65
2023-01-19T00:48:56.582Z,21.65
2023-01-19T00:49:43.464Z,21.20
2023-01-19T00:50:31.630Z,20.98
2023-01-19T00:51:18.430Z,20.23
2023-01-19T00:52:05.567Z,20.20
2023-01-19T00:52:53.965Z,21.15
2023-01-19T00:53:40.749Z,20.02
2023-01-19T00:54:27.762Z,20.80
2023-01-19T00:55:15.429Z,21.10
2023-01-19T00:56:02.232Z,18.52
2023-01-19T00:56:49.087Z,19.52
2023-01-19T00:57:36.168Z,20.50
2023-01-19T00:58:23.002Z,20.62
2023-01-19T00:59:10.921Z,20.92
2023-01-19T00:59:57.761Z,19.48
2023-01-19T01:00:45.103Z,20.30
2023-01-19T01:01:45.485Z,21.00
2023-01-19T01:02:33.917Z,19.90
2023-01-19T01:03:20.881Z,20.52
2023-01-19T01:04:07.719Z,19.33
2023-01-19T01:04:55.146Z,20.62
2023-01-19T01:05:42.718Z,21.42
2023-01-19T01:06:29.550Z,19.42
2023-01-19T01:07:16.351Z,20.42
2023-01-19T01:08:03.248Z,19.92
2023-01-19T01:08:50.101Z,20.42
2023-01-19T01:09:36.943Z,19.85
2023-01-19T01:10:26.378Z,20.17
2023-01-19T01:11:13.201Z,19.15
2023-01-19T01:12:00.177Z,20.75
2023-01-19T01:12:54.822Z,20.00
2023-01-19T01:13:54.577Z,19.85
2023-01-19T01:14:42.044Z,20.25
2023-01-19T01:15:30.103Z,19.10
2023-01-19T01:16:17.340Z,20.65
2023-01-19T01:17:04.263Z,20.20
2023-01-19T01:17:53.259Z,19.10
2023-01-19T01:18:40.110Z,19.87
2023-01-19T01:19:26.969Z,20.30
2023-01-19T01:20:18.716Z,19.77
2023-01-19T01:21:07.028Z,19.70
2023-01-19T01:21:53.861Z,20.37
2023-01-19T01:22:40.972Z,19.62
2023-01-19T01:23:27.908Z,20.17
2023-01-19T01:24:14.759Z,20.45
2023-01-19T01:25:01.591Z,20.35
2023-01-19T01:25:48.680Z,19.90
2023-01-19T01:26:35.639Z,19.08
2023-01-19T01:27:22.649Z,20.05
2023-01-19T01:28:10.570Z,20.85
2023-01-19T01:28:57.483Z,20.37
2023-01-19T01:29:46.719Z,19.87
2023-01-19T01:30:33.578Z,20.08
2023-01-19T01:31:20.478Z,19.77
2023-01-19T01:32:08.670Z,19.75
2023-01-19T01:32:55.805Z,19.98
2023-01-19T01:33:42.644Z,19.65
2023-01-19T01:34:29.492Z,20.27
2023-01-19T01:35:16.551Z,20.27
2023-01-19T01:36:03.704Z,19.30
2023-01-19T01:36:50.553Z,20.27
2023-01-19T01:37:37.901Z,19.42
2023-01-19T01:38:24.739Z,19.65
2023-01-19T01:39:11.541Z,20.00
2023-01-19T01:39:58.350Z,20.60
2023-01-19T01:40:45.190Z,19.48
2023-01-19T01:41:32.531Z,20.23
2023-01-19T01:42:20.780Z,20.55
2023-01-19T01:43:14.870Z,20.10
2023-01-19T01:44:08.448Z,19.48
2023-01-19T01:45:00.681Z,20.70
2023-01-19T01:45:47.705Z,19.55
2023-01-19T01:46:34.567Z,19.70
2023-01-19T01:47:27.461Z,19.87
2023-01-19T01:48:27.793Z,19.75
2023-01-19T01:49:16.817Z,19.12
2023-01-19T01:50:16.886Z,20.60
2023-01-19T01:51:25.444Z,19.50
2023-01-19T01:52:14.293Z,19.83
2023-01-19T01:53:12.817Z,19.52
2023-01-19T01:54:07.663Z,20.62
2023-01-19T01:54:54.582Z,21.58
2023-01-19T01:55:46.370Z,21.45
2023-01-19T01:56:36.499Z,20.27
2023-01-19T01:57:23.338Z,20.73
2023-01-19T01:58:11.125Z,20.10
2023-01-19T01:58:58.672Z,21.05
2023-01-19T01:59:47.892Z,21.52
2023-01-19T02:00:54.797Z,20.80
2023-01-19T02:02:00.666Z,20.95
2023-01-19T02:02:56.940Z,20.88
2023-01-19T02:03:43.914Z,20.90
2023-01-19T02:04:31.797Z,21.17
2023-01-19T02:05:21.062Z,21.85
2023-01-19T02:06:08.281Z,20.25
2023-01-19T02:07:13.576Z,21.98
2023-01-19T02:08:23.179Z,20.98
2023-01-19T02:09:29.634Z,20.75
2023-01-19T02:10:35.184Z,20.60
2023-01-19T02:11:41.200Z,21.02
2023-01-19T02:12:47.339Z,20.23
2023-01-19T02:13:40.051Z,20.10
2023-01-19T02:14:27.977Z,20.62
2023-01-19T02:15:16.913Z,21.42
2023-01-19T02:16:07.727Z,21.12
2023-01-19T02:16:54.885Z,21.62
2023-01-19T02:17:42.301Z,20.60
2023-01-19T02:18:31.285Z,23.50
2023-01-19T02:19:24.548Z,23.45
2023-01-19T02:20:11.780Z,22.23
2023-01-19T02:21:19.035Z,22.27
2023-01-19T02:22:12.048Z,22.65
2023-01-19T02:23:04.024Z,22.15
2023-01-19T02:23:55.891Z,19.10
2023-01-19T02:24:43.254Z,19.85
2023-01-19T02:25:30.118Z,18.40
2023-01-19T02:26:19.724Z,17.05
2023-01-19T02:27:07.603Z,16.23
2023-01-19T02:27:55.309Z,16.48
2023-01-19T02:28:45.102Z,16.25
2023-01-19T02:29:33.021Z,17.35
2023-01-19T02:30:20.011Z,15.45
2023-01-19T02:31:07.099Z,16.60
2023-01-19T02:31:55.842Z,15.90
2023-01-19T02:32:43.140Z,15.95
2023-01-19T02:33:30.161Z,14.70
2023-01-19T02:34:19.549Z,16.05
2023-01-19T02:35:07.069Z,16.25
2023-01-19T02:35:54.611Z,15.43
2023-01-19T02:36:49.282Z,14.45
2023-01-19T02:37:37.781Z,15.02
2023-01-19T02:38:27.227Z,14.35
2023-01-19T02:39:16.352Z,16.00
2023-01-19T02:40:04.892Z,14.02
2023-01-19T02:40:52.281Z,15.38
2023-01-19T02:41:42.815Z,14.68
2023-01-19T02:42:44.740Z,15.60
2023-01-19T02:43:32.209Z,15.05
2023-01-19T02:44:21.339Z,14.25
2023-01-19T02:45:09.796Z,14.70
2023-01-19T02:45:57.389Z,15.00
2023-01-19T02:46:44.209Z,14.68
2023-01-19T02:47:39.066Z,15.07
2023-01-19T02:48:26.090Z,14.75
2023-01-19T02:49:13.812Z,15.30
2023-01-19T02:50:01.225Z,14.07
2023-01-19T02:50:51.868Z,14.38
2023-01-19T02:52:26.196Z,14.20
2023-01-19T02:53:39.860Z,13.77
2023-01-19T02:54:46.053Z,14.57
2023-01-19T02:55:33.101Z,14.68
2023-01-19T02:56:46.390Z,14.05
2023-01-19T02:57:40.150Z,14.82
2023-01-19T02:58:53.009Z,14.63
2023-01-19T02:59:54.630Z,15.68
2023-01-19T03:01:08.780Z,14.38
2023-01-19T03:02:11.821Z,14.80
2023-01-19T03:03:28.345Z,15.77
2023-01-19T03:04:29.886Z,15.98
2023-01-19T03:05:20.260Z,15.40
2023-01-19T03:06:32.994Z,15.40
2023-01-19T03:07:28.681Z,15.45
2023-01-19T03:08:30.664Z,15.30
2023-01-19T03:09:28.562Z,15.13
2023-01-19T03:10:23.109Z,16.65
2023-01-19T03:11:12.529Z,16.60
2023-01-19T03:12:13.920Z,16.90
2023-01-19T03:13:16.390Z,15.32
2023-01-19T03:14:15.392Z,16.92
2023-01-19T03:15:09.938Z,15.80
2023-01-19T03:16:00.603Z,16.15
2023-01-19T03:16:55.343Z,15.52
2023-01-19T03:17:44.756Z,15.55
2023-01-19T03:18:32.879Z,16.10
2023-01-19T03:19:19.890Z,16.30
2023-01-19T03:20:07.951Z,16.80
2023-01-19T03:20:58.280Z,15.15
2023-01-19T03:21:48.151Z,15.63
2023-01-19T03:22:35.351Z,14.50
2023-01-19T03:23:25.688Z,16.00
2023-01-19T03:24:14.019Z,14.57
2023-01-19T03:25:01.578Z,16.40
2023-01-19T03:25:49.710Z,15.55
2023-01-19T03:26:41.374Z,15.38
2023-01-19T03:27:40.973Z,15.82
2023-01-19T03:28:29.801Z,16.10
2023-01-19T03:29:18.603Z,14.85
2023-01-19T03:30:09.480Z,15.25
2023-01-19T03:31:06.523Z,15.05
2023-01-19T03:31:53.816Z,15.18
2023-01-19T03:32:52.232Z,15.35
2023-01-19T03:33:42.089Z,14.07
2023-01-19T03:34:29.739Z,14.13
2023-01-19T03:35:17.139Z,13.77
2023-01-19T03:36:08.903Z,13.27
2023-01-19T03:36:58.181Z,13.55
2023-01-19T03:37:46.420Z,13.95
2023-01-19T03:38:36.277Z,15.25
2023-01-19T03:39:24.992Z,11.75
2023-01-19T03:40:12.389Z,14.27
2023-01-19T03:41:01.735Z,13.35
2023-01-19T03:41:51.867Z,14.40
2023-01-19T03:42:39.351Z,13.88
2023-01-19T03:43:26.850Z,13.52
2023-01-19T03:44:13.849Z,14.10
2023-01-19T03:45:01.476Z,13.85
2023-01-19T03:45:48.925Z,14.55
2023-01-19T03:46:35.977Z,13.90
2023-01-19T03:47:23.419Z,14.52
2023-01-19T03:48:10.273Z,14.75
2023-01-19T03:48:57.533Z,14.63
2023-01-19T03:49:45.600Z,13.85
2023-01-19T03:50:32.510Z,14.55
2023-01-19T03:51:19.772Z,14.15
2023-01-19T03:52:06.761Z,15.65
2023-01-19T03:53:03.286Z,14.68
2023-01-19T03:53:50.271Z,15.13
2023-01-19T03:54:37.301Z,14.73
2023-01-19T03:55:24.252Z,14.80
2023-01-19T03:56:25.235Z,15.40
2023-01-19T03:57:12.702Z,15.25
2023-01-19T03:57:59.604Z,13.13
2023-01-19T03:58:46.622Z,14.13
2023-01-19T03:59:33.481Z,15.85
2023-01-19T04:00:20.472Z,14.55
2023-01-19T04:01:07.521Z,15.07
2023-01-19T04:01:54.461Z,15.23
2023-01-19T04:02:41.415Z,15.35
2023-01-19T04:03:28.822Z,15.40
2023-01-19T04:04:16.010Z,15.63
2023-01-19T04:05:02.832Z,15.25
2023-01-19T04:05:49.813Z,15.68
2023-01-19T04:06:36.750Z,14.75
2023-01-19T04:07:23.620Z,14.55
2023-01-19T04:08:11.282Z,16.45
2023-01-19T04:08:58.080Z,16.48
2023-01-19T04:09:44.983Z,15.57
2023-01-19T04:10:32.167Z,15.25
2023-01-19T04:11:19.032Z,15.43
2023-01-19T04:12:05.974Z,15.20
2023-01-19T04:12:58.593Z,16.30
2023-01-19T04:13:45.651Z,15.93
2023-01-19T04:14:32.470Z,14.95
2023-01-19T04:15:19.610Z,16.20
2023-01-19T04:16:07.137Z,14.75
2023-01-19T04:16:53.923Z,13.93
2023-01-19T04:17:40.946Z,15.10
2023-01-19T04:18:28.955Z,15.05
2023-01-19T04:19:15.759Z,15.13
2023-01-19T04:20:02.812Z,15.95
2023-01-19T04:20:49.670Z,16.23
2023-01-19T04:21:36.530Z,16.40
2023-01-19T04:22:23.351Z,15.05
2023-01-19T04:23:10.157Z,14.13
2023-01-19T04:23:57.001Z,15.82
2023-01-19T04:24:43.841Z,15.38
2023-01-19T04:25:30.791Z,14.20
2023-01-19T04:26:17.636Z,14.13
2023-01-19T04:27:04.687Z,15.32
2023-01-19T04:27:55.652Z,16.37
2023-01-19T04:28:42.976Z,16.45
2023-01-19T04:29:29.861Z,15.45
2023-01-19T04:30:17.021Z,15.93
2023-01-19T04:31:04.777Z,14.98
2023-01-19T04:31:51.626Z,15.35
2023-01-19T04:32:38.537Z,15.40
2023-01-19T04:33:25.880Z,15.77
2023-01-19T04:34:12.709Z,15.88
2023-01-19T04:34:59.865Z,15.50
2023-01-19T04:35:47.385Z,15.32
2023-01-19T04:36:34.232Z,14.65
2023-01-19T04:37:21.114Z,14.80
2023-01-19T04:38:07.949Z,15.10
2023-01-19T04:38:55.376Z,14.98
2023-01-19T04:39:42.290Z,14.95
2023-01-19T04:40:29.131Z,14.65
2023-01-19T04:41:16.079Z,14.50
2023-01-19T04:42:03.008Z,15.30
2023-01-19T04:42:49.871Z,14.00
2023-01-19T04:43:36.723Z,14.60
2023-01-19T04:44:24.272Z,15.45
2023-01-19T04:45:12.060Z,14.52
2023-01-19T04:45:59.457Z,15.05
2023-01-19T04:46:46.322Z,14.35
2023-01-19T04:47:33.229Z,14.10
2023-01-19T04:48:20.502Z,13.57
2023-01-19T04:49:07.434Z,15.27
2023-01-19T04:49:54.300Z,14.63
2023-01-19T04:50:42.126Z,14.10
2023-01-19T04:51:29.100Z,13.60
2023-01-19T04:52:16.021Z,14.65
2023-01-19T04:53:03.229Z,15.07
2023-01-19T04:53:50.240Z,14.32
2023-01-19T04:54:37.127Z,14.43
2023-01-19T04:55:24.244Z,14.63
2023-01-19T04:56:11.142Z,13.73
2023-01-19T04:56:58.471Z,13.77
2023-01-19T04:57:45.674Z,14.43
2023-01-19T04:58:32.456Z,14.00
2023-01-19T04:59:20.631Z,14.10
2023-01-19T05:00:08.479Z,14.75
2023-01-19T05:00:55.439Z,14.52
2023-01-19T05:01:42.376Z,14.90
2023-01-19T05:02:29.279Z,14.75
2023-01-19T05:03:16.197Z,14.10
2023-01-19T05:04:05.387Z,14.65
2023-01-19T05:04:52.264Z,15.00
2023-01-19T05:05:39.211Z,14.87
2023-01-19T05:06:26.092Z,14.27
2023-01-19T05:07:12.908Z,14.43
2023-01-19T05:07:59.782Z,15.13
2023-01-19T05:08:46.649Z,14.55
2023-01-19T05:09:33.549Z,14.15
2023-01-19T05:10:20.591Z,13.73
2023-01-19T05:11:07.429Z,14.40
2023-01-19T05:11:54.337Z,14.98
2023-01-19T05:12:42.352Z,14.60
2023-01-19T05:13:29.278Z,14.07
2023-01-19T05:14:16.123Z,13.95
2023-01-19T05:15:02.993Z,14.85
2023-01-19T05:15:50.609Z,15.35
2023-01-19T05:16:37.441Z,14.02
2023-01-19T05:17:24.360Z,14.27
2023-01-19T05:18:11.421Z,14.85
2023-01-19T05:18:58.421Z,14.10
2023-01-19T05:19:45.246Z,14.75
2023-01-19T05:20:32.121Z,14.70
2023-01-19T05:21:19.244Z,16.02
2023-01-19T05:22:07.162Z,14.75
2023-01-19T05:22:54.105Z,15.23
2023-01-19T05:23:41.352Z,15.30
2023-01-19T05:24:28.278Z,14.38
2023-01-19T05:25:15.060Z,15.25
2023-01-19T05:26:02.855Z,15.02
2023-01-19T05:26:49.737Z,15.07
2023-01-19T05:27:37.259Z,14.90
2023-01-19T05:28:24.051Z,14.77
2023-01-19T05:29:10.852Z,14.98
2023-01-19T05:29:57.700Z,14.18
2023-01-19T05:30:44.661Z,15.20
2023-01-19T05:31:31.632Z,15.55
2023-01-19T05:32:18.496Z,16.48
2023-01-19T05:33:05.630Z,14.77
2023-01-19T05:33:52.421Z,14.55
2023-01-19T05:34:39.603Z,15.50
2023-01-19T05:35:35.718Z,15.38
2023-01-19T05:36:23.192Z,14.90
2023-01-19T05:37:10.100Z,15.40
2023-01-19T05:37:57.090Z,14.40
2023-01-19T05:38:43.937Z,15.32
2023-01-19T05:39:30.919Z,15.13
2023-01-19T05:40:17.771Z,15.07
2023-01-19T05:41:04.674Z,15.82
2023-01-19T05:41:51.500Z,14.65
2023-01-19T05:42:38.363Z,15.27
2023-01-19T05:43:28.124Z,15.10
2023-01-19T05:44:14.980Z,14.00
2023-01-19T05:45:01.819Z,15.90
2023-01-19T05:45:48.623Z,15.40
2023-01-19T05:46:35.590Z,15.48
2023-01-19T05:47:22.399Z,15.25
2023-01-19T05:48:10.217Z,16.45
2023-01-19T05:48:57.190Z,15.02
2023-01-19T05:49:43.980Z,16.00
2023-01-19T05:50:31.011Z,15.10
2023-01-19T05:51:17.792Z,15.48
2023-01-19T05:52:04.776Z,16.08
2023-01-19T05:52:53.554Z,15.77
2023-01-19T05:53:40.371Z,16.10
2023-01-19T05:54:27.222Z,15.07
2023-01-19T05:55:15.570Z,16.17
2023-01-19T05:56:03.789Z,15.43
2023-01-19T05:56:50.601Z,15.88
2023-01-19T05:57:37.508Z,15.80
2023-01-19T05:58:24.522Z,15.82
2023-01-19T05:59:11.676Z,16.05
2023-01-19T05:59:58.490Z,15.93
2023-01-19T06:00:45.297Z,16.80
2023-01-19T06:01:33.359Z,15.35
2023-01-19T06:02:20.345Z,16.00
2023-01-19T06:03:07.286Z,16.27
2023-01-19T06:03:54.880Z,16.33
2023-01-19T06:04:41.765Z,17.35
2023-01-19T06:05:28.979Z,16.17
2023-01-19T06:06:15.829Z,17.02
2023-01-19T06:07:03.081Z,17.10
2023-01-19T06:07:49.938Z,16.58
2023-01-19T06:08:36.813Z,16.95
2023-01-19T06:09:23.724Z,16.75
2023-01-19T06:10:11.373Z,17.02
2023-01-19T06:10:58.280Z,17.30
2023-01-19T06:11:46.101Z,17.35
2023-01-19T06:12:32.980Z,17.08
2023-01-19T06:13:20.121Z,17.30
2023-01-19T06:14:06.985Z,17.58
2023-01-19T06:14:53.839Z,16.83
2023-01-19T06:15:40.611Z,17.87
2023-01-19T06:16:27.464Z,16.42
2023-01-19T06:17:14.331Z,16.62
2023-01-19T06:18:01.318Z,16.73
2023-01-19T06:18:48.121Z,16.90
2023-01-19T06:19:35.339Z,17.50
2023-01-19T06:20:22.421Z,15.38
2023-01-19T06:21:10.601Z,16.30
2023-01-19T06:21:57.911Z,16.10
2023-01-19T06:22:44.930Z,16.62
2023-01-19T06:23:33.011Z,15.95
2023-01-19T06:24:20.003Z,15.02
2023-01-19T06:25:07.307Z,15.93
2023-01-19T06:25:54.159Z,16.58
2023-01-19T06:26:40.961Z,16.27
2023-01-19T06:27:27.891Z,15.73
2023-01-19T06:28:14.723Z,16.23
2023-01-19T06:29:01.604Z,16.10
2023-01-19T06:29:48.480Z,15.73
2023-01-19T06:30:35.515Z,16.77
2023-01-19T06:31:22.760Z,16.52
2023-01-19T06:32:09.705Z,16.62
2023-01-19T06:32:56.541Z,16.17
2023-01-19T06:33:43.387Z,18.00
2023-01-19T06:34:30.233Z,17.00
2023-01-19T06:35:18.477Z,15.98
2023-01-19T06:36:05.763Z,16.45
2023-01-19T06:36:52.613Z,16.85
2023-01-19T06:37:39.600Z,17.70
2023-01-19T06:38:26.441Z,16.95
2023-01-19T06:39:13.454Z,16.83
2023-01-19T06:40:00.572Z,17.45
2023-01-19T06:40:54.069Z,16.37
2023-01-19T06:41:40.974Z,16.08
2023-01-19T06:42:27.823Z,17.17
2023-01-19T06:43:14.712Z,16.73
2023-01-19T06:44:02.052Z,16.33
2023-01-19T06:44:48.920Z,16.83
2023-01-19T06:45:35.991Z,17.77
2023-01-19T06:46:23.010Z,17.20
2023-01-19T06:47:15.764Z,16.80
2023-01-19T06:48:03.865Z,17.12
2023-01-19T06:48:50.660Z,16.73
2023-01-19T06:49:37.459Z,17.02
2023-01-19T06:50:24.332Z,17.23
2023-01-19T06:51:11.178Z,16.23
2023-01-19T06:51:57.985Z,16.12
2023-01-19T06:52:46.856Z,16.75
2023-01-19T06:53:34.028Z,16.58
2023-01-19T06:54:20.839Z,16.23
2023-01-19T06:55:10.919Z,17.77
2023-01-19T06:56:02.030Z,16.52
2023-01-19T06:56:49.951Z,16.02
2023-01-19T06:57:39.045Z,16.87
2023-01-19T06:58:25.945Z,18.00
2023-01-19T06:59:12.791Z,17.55
2023-01-19T07:00:00.920Z,17.62
2023-01-19T07:00:51.880Z,16.85
2023-01-19T07:01:38.928Z,17.75
2023-01-19T07:02:28.580Z,16.25
2023-01-19T07:03:22.346Z,18.08
2023-01-19T07:04:09.219Z,16.20
2023-01-19T07:04:57.034Z,17.12
2023-01-19T07:05:43.908Z,16.80
2023-01-19T07:06:30.753Z,16.50
2023-01-19T07:07:17.649Z,17.10
2023-01-19T07:08:04.696Z,16.87
2023-01-19T07:08:51.528Z,17.85
2023-01-19T07:09:38.362Z,17.05
2023-01-19T07:10:25.343Z,17.37
2023-01-19T07:11:26.262Z,17.75
2023-01-19T07:12:19.150Z,17.05
2023-01-19T07:13:05.990Z,15.80
2023-01-19T07:13:55.149Z,17.10
2023-01-19T07:14:41.985Z,16.87
2023-01-19T07:15:28.858Z,16.25
2023-01-19T07:16:15.795Z,17.52
2023-01-19T07:17:03.193Z,17.33
2023-01-19T07:17:50.854Z,18.30
2023-01-19T07:18:38.600Z,15.98
2023-01-19T07:19:25.430Z,18.12
2023-01-19T07:20:14.563Z,15.95
2023-01-19T07:21:01.752Z,17.67
2023-01-19T07:21:48.551Z,15.73
2023-01-19T07:22:35.311Z,16.48
2023-01-19T07:23:22.111Z,16.10
2023-01-19T07:24:08.912Z,16.75
2023-01-19T07:24:55.704Z,16.05
2023-01-19T07:25:45.822Z,16.27
2023-01-19T07:26:32.611Z,16.15
2023-01-19T07:27:19.418Z,15.30
2023-01-19T07:28:06.226Z,16.80
2023-01-19T07:28:53.114Z,15.98
2023-01-19T07:29:40.059Z,16.77
2023-01-19T07:30:27.423Z,15.75
2023-01-19T07:31:17.724Z,16.30
2023-01-19T07:32:04.710Z,15.73
2023-01-19T07:32:51.711Z,15.48
2023-01-19T07:33:38.556Z,15.73
2023-01-19T07:34:25.353Z,15.38
2023-01-19T07:35:12.187Z,16.85
2023-01-19T07:35:59.355Z,16.83
2023-01-19T07:36:46.153Z,15.45
2023-01-19T07:37:33.021Z,15.68
2023-01-19T07:38:20.512Z,15.73
2023-01-19T07:39:07.520Z,15.60
2023-01-19T07:39:54.343Z,16.52
2023-01-19T07:40:41.580Z,16.65
2023-01-19T07:41:28.381Z,16.92
2023-01-19T07:42:15.277Z,15.68
2023-01-19T07:43:03.196Z,15.77
2023-01-19T07:43:51.544Z,16.33
2023-01-19T07:44:38.421Z,16.00
2023-01-19T07:45:27.154Z,15.85
2023-01-19T07:46:14.714Z,16.12
2023-01-19T07:47:01.593Z,17.12
2023-01-19T07:47:51.211Z,16.62
2023-01-19T07:48:38.071Z,15.65
2023-01-19T07:49:25.129Z,16.45
2023-01-19T07:50:13.918Z,15.55
2023-01-19T07:51:05.926Z,16.25
2023-01-19T07:51:52.855Z,15.43
2023-01-19T07:52:39.853Z,16.90
2023-01-19T07:53:26.681Z,16.20
2023-01-19T07:54:13.522Z,16.23
2023-01-19T07:55:00.349Z,15.35
2023-01-19T07:55:47.548Z,16.27
2023-01-19T07:56:34.382Z,14.77
2023-01-19T07:57:21.700Z,15.13
2023-01-19T07:58:08.556Z,16.08
2023-01-19T07:58:55.982Z,15.45
2023-01-19T07:59:43.272Z,14.50
2023-01-19T08:00:30.066Z,16.08
2023-01-19T08:01:16.989Z,16.00
2023-01-19T08:02:04.058Z,17.65
2023-01-19T08:02:52.021Z,15.68
2023-01-19T08:03:39.120Z,16.12
2023-01-19T08:04:29.238Z,15.50
2023-01-19T08:05:17.694Z,15.70
2023-01-19T08:06:05.353Z,14.60
2023-01-19T08:06:52.402Z,16.10
2023-01-19T08:07:39.217Z,15.45
2023-01-19T08:08:26.136Z,15.93
2023-01-19T08:09:13.471Z,15.90
2023-01-19T08:10:00.359Z,16.10
2023-01-19T08:10:50.557Z,15.85
2023-01-19T08:11:38.231Z,15.75
2023-01-19T08:12:25.093Z,15.95
2023-01-19T08:13:11.922Z,15.85
2023-01-19T08:13:58.981Z,17.42
2023-01-19T08:14:45.771Z,15.10
2023-01-19T08:15:32.683Z,16.37
2023-01-19T08:16:19.560Z,15.00
2023-01-19T08:17:06.381Z,15.52
2023-01-19T08:18:02.920Z,15.23
2023-01-19T08:18:49.720Z,15.50
2023-01-19T08:19:36.544Z,15.77
2023-01-19T08:20:23.551Z,14.90
2023-01-19T08:21:10.431Z,16.23
2023-01-19T08:21:59.079Z,15.38
2023-01-19T08:22:47.738Z,14.50
2023-01-19T08:23:34.764Z,15.32
2023-01-19T08:24:24.044Z,15.65
2023-01-19T08:25:10.884Z,15.48
2023-01-19T08:25:57.711Z,14.60
2023-01-19T08:26:44.687Z,16.77
2023-01-19T08:27:31.516Z,15.75
2023-01-19T08:28:18.448Z,15.95
2023-01-19T08:29:05.978Z,16.15
2023-01-19T08:29:54.590Z,15.82
2023-01-19T08:30:43.913Z,15.55
2023-01-19T08:31:31.459Z,15.77
2023-01-19T08:32:18.572Z,15.50
2023-01-19T08:33:08.286Z,15.48
2023-01-19T08:33:55.609Z,16.37
2023-01-19T08:34:42.531Z,15.23
2023-01-19T08:35:33.567Z,15.85
2023-01-19T08:36:21.502Z,16.10
2023-01-19T08:37:08.352Z,15.00
2023-01-19T08:37:58.131Z,15.10
2023-01-19T08:38:48.009Z,15.73
2023-01-19T08:39:34.898Z,16.45
2023-01-19T08:40:21.793Z,14.85
2023-01-19T08:41:08.659Z,14.93
2023-01-19T08:41:55.551Z,15.60
2023-01-19T08:42:42.411Z,15.85
2023-01-19T08:43:29.277Z,14.93
2023-01-19T08:44:16.269Z,15.80
2023-01-19T08:45:03.251Z,15.82
2023-01-19T08:45:53.602Z,16.62
2023-01-19T08:46:40.447Z,15.40
2023-01-19T08:47:27.427Z,15.35
2023-01-19T08:48:15.834Z,16.05
2023-01-19T08:49:02.729Z,16.80
2023-01-19T08:49:49.495Z,17.73
2023-01-19T08:50:36.318Z,18.37
2023-01-19T08:51:23.161Z,17.33
2023-01-19T08:52:09.951Z,18.30
2023-01-19T08:52:58.267Z,19.15
2023-01-19T08:53:45.262Z,17.65
2023-01-19T08:54:32.150Z,20.02
2023-01-19T08:55:19.023Z,18.83
2023-01-19T08:56:12.309Z,19.05
2023-01-19T08:56:59.348Z,18.95
2023-01-19T08:57:46.230Z,17.95
2023-01-19T08:58:32.980Z,17.58
2023-01-19T08:59:19.861Z,19.05
2023-01-19T09:00:10.255Z,19.40
2023-01-19T09:01:01.029Z,18.00
2023-01-19T09:01:48.962Z,17.17
2023-01-19T09:02:36.071Z,18.15
2023-01-19T09:03:23.143Z,16.73
2023-01-19T09:04:10.055Z,16.77
2023-01-19T09:04:56.923Z,17.50
2023-01-19T09:05:45.861Z,15.05
2023-01-19T09:06:33.032Z,16.48
2023-01-19T09:07:19.851Z,16.98
2023-01-19T09:08:10.534Z,16.70
2023-01-19T09:08:57.877Z,15.65
2023-01-19T09:09:44.757Z,15.90
2023-01-19T09:10:36.070Z,14.27
2023-01-19T09:11:23.134Z,14.80
2023-01-19T09:12:09.950Z,15.02
2023-01-19T09:12:56.791Z,15.45
2023-01-19T09:13:44.017Z,15.43
2023-01-19T09:14:30.951Z,14.02
2023-01-19T09:15:17.802Z,14.65
2023-01-19T09:16:05.026Z,14.32
2023-01-19T09:16:51.960Z,15.20
2023-01-19T09:17:38.770Z,14.30
2023-01-19T09:18:25.601Z,14.32
2023-01-19T09:19:14.171Z,15.02
2023-01-19T09:20:01.024Z,15.02
2023-01-19T09:20:49.515Z,16.62
2023-01-19T09:21:36.422Z,15.40
2023-01-19T09:22:23.291Z,13.77
2023-01-19T09:23:11.350Z,14.57
2023-01-19T09:23:58.293Z,15.07
2023-01-19T09:24:45.165Z,15.10
2023-01-19T09:25:32.865Z,16.17
2023-01-19T09:26:19.752Z,15.38
2023-01-19T09:27:06.648Z,14.52
2023-01-19T09:27:53.720Z,14.63
2023-01-19T09:28:40.585Z,15.55
2023-01-19T09:29:27.388Z,15.27
2023-01-19T09:30:14.829Z,15.38
2023-01-19T09:31:05.865Z,13.38
2023-01-19T09:31:52.854Z,15.43
2023-01-19T09:32:39.668Z,15.77
2023-01-19T09:33:28.585Z,15.43
2023-01-19T09:34:15.960Z,15.13
2023-01-19T09:35:02.785Z,15.63
2023-01-19T09:35:50.799Z,14.75
2023-01-19T09:36:39.651Z,16.02
2023-01-19T09:37:26.563Z,15.40
2023-01-19T09:38:15.438Z,14.52
2023-01-19T09:39:05.051Z,15.15
2023-01-19T09:39:52.063Z,15.50
2023-01-19T09:40:44.568Z,16.70
2023-01-19T09:41:33.923Z,15.07
2023-01-19T09:42:29.863Z,16.08
2023-01-19T09:43:25.523Z,14.93
2023-01-19T09:44:17.767Z,17.23
2023-01-19T09:45:14.501Z,16.10
2023-01-19T09:46:02.946Z,15.55
2023-01-19T09:46:49.826Z,14.00
2023-01-19T09:47:37.324Z,14.18
2023-01-19T09:48:31.067Z,14.52
2023-01-19T09:49:28.308Z,13.55
2023-01-19T09:50:26.516Z,13.95
2023-01-19T09:51:19.230Z,13.68
2023-01-19T09:52:06.130Z,15.43
2023-01-19T09:53:01.696Z,14.55
2023-01-19T09:54:12.330Z,14.82
2023-01-19T09:54:59.389Z,15.75
2023-01-19T09:55:46.248Z,15.57
2023-01-19T09:56:33.412Z,15.00
2023-01-19T09:57:21.724Z,15.38
2023-01-19T09:58:16.601Z,13.93
2023-01-19T09:59:22.060Z,15.80
2023-01-19T10:00:28.241Z,15.45
2023-01-19T10:01:35.604Z,14.65
2023-01-19T10:02:36.891Z,15.68
2023-01-19T10:03:24.298Z,13.93
2023-01-19T10:04:30.514Z,14.07
2023-01-19T10:05:35.051Z,13.30
2023-01-19T10:06:22.062Z,14.73
2023-01-19T10:07:27.630Z,15.63
2023-01-19T10:08:55.872Z,16.02
2023-01-19T10:10:01.001Z,14.68
2023-01-19T10:10:52.982Z,13.48
2023-01-19T10:12:01.799Z,14.87
2023-01-19T10:13:13.162Z,15.52
2023-01-19T10:14:00.105Z,13.95
2023-01-19T10:15:01.733Z,12.80
2023-01-19T10:16:00.553Z,13.93
2023-01-19T10:16:54.919Z,13.52
2023-01-19T10:17:51.455Z,14.57
2023-01-19T10:18:46.086Z,13.00
2023-01-19T10:19:38.212Z,13.57
2023-01-19T10:20:39.999Z,13.35
2023-01-19T10:21:35.689Z,14.07
2023-01-19T10:22:27.546Z,12.43
2023-01-19T10:23:25.551Z,13.25
2023-01-19T10:24:26.039Z,14.13
2023-01-19T10:25:19.961Z,13.30
2023-01-19T10:26:30.377Z,13.25
2023-01-19T10:27:19.168Z,13.20
2023-01-19T10:28:06.031Z,12.68
2023-01-19T10:28:59.466Z,12.98
2023-01-19T10:29:46.720Z,13.73
2023-01-19T10:30:33.990Z,13.15
2023-01-19T10:31:26.141Z,13.05
2023-01-19T10:32:20.157Z,13.18
2023-01-19T10:33:07.028Z,12.85
2023-01-19T10:33:54.692Z,12.60